Time;durP1;ratioP1;P1;durP2;ratioP2;P2;SDS_P1;SDS_P2;PMS_P1;PMS_P2;Temp;Humidity;BMP_temperature;BMP_pressure;BME280_temperature;BME280_humidity;BME280_pressure;Samples;Min_cycle;Max_cycle;Signal;HPM_P1;HPM_P2
2024/01/12 00:01:33;;;;;;;36.88;18.20;;;;;;;3.01;71.29;101011.22;4990559;28;20081;-81
2024/01/12 00:03:59;;;;;;;43.20;18.93;;;;;;;2.98;71.48;101008.50;4990130;28;20034;-82
2024/01/12 00:06:24;;;;;;;42.38;17.67;;;;;;;2.94;71.84;101001.44;4990292;28;20076;-77
2024/01/12 00:08:49;;;;;;;37.67;17.57;;;;;;;2.93;71.69;101007.47;4990296;28;20450;-77
2024/01/12 00:11:16;;;;;;;39.60;17.63;;;;;;;2.87;71.37;101009.00;4990871;28;20098;-77
2024/01/12 00:13:42;;;;;;;39.30;18.02;;;;;;;2.85;71.59;101008.06;4991928;28;20525;-78
2024/01/12 00:16:07;;;;;;;39.00;18.17;;;;;;;2.82;71.58;101009.63;5009389;28;20034;-80
2024/01/12 00:18:36;;;;;;;40.50;18.23;;;;;;;2.76;71.48;101007.66;5009599;28;20542;-81
2024/01/12 00:21:01;;;;;;;45.00;19.00;;;;;;;2.70;71.36;101008.34;5009542;28;20026;-77
2024/01/12 00:23:26;;;;;;;44.65;20.33;;;;;;;2.68;71.87;101011.69;4992214;28;20547;-77
2024/01/12 00:25:58;;;;;;;44.03;20.37;;;;;;;2.67;71.54;101013.41;5000122;28;20034;-80
2024/01/12 00:28:26;;;;;;;46.03;20.13;;;;;;;2.66;71.62;101015.94;4990081;28;20027;-78
2024/01/12 00:30:51;;;;;;;46.93;20.60;;;;;;;2.63;71.87;101016.69;4990075;28;20035;-78
2024/01/12 00:33:16;;;;;;;42.78;19.65;;;;;;;2.60;71.81;101026.97;4989996;28;20104;-77
2024/01/12 00:35:42;;;;;;;42.97;19.97;;;;;;;2.57;71.25;101019.94;4989965;28;20110;-78
2024/01/12 00:38:07;;;;;;;46.87;21.37;;;;;;;2.54;71.37;101017.22;4989732;28;20437;-79
2024/01/12 00:40:33;;;;;;;46.23;21.13;;;;;;;2.51;71.72;101019.69;4989542;28;20491;-79
2024/01/12 00:42:58;;;;;;;45.67;21.53;;;;;;;2.49;71.26;101018.72;4989913;28;20162;-80
2024/01/12 00:45:23;;;;;;;43.42;21.05;;;;;;;2.48;71.93;101016.97;4993415;28;20065;-80
2024/01/12 00:47:49;;;;;;;42.13;19.87;;;;;;;2.46;71.51;101018.59;4993641;28;20406;-79
2024/01/12 00:50:14;;;;;;;48.90;20.73;;;;;;;2.42;71.19;101019.31;4993564;28;20089;-79
2024/01/12 00:52:39;;;;;;;43.77;20.20;;;;;;;2.38;71.22;101015.69;4993640;28;20113;-77
2024/01/12 00:55:06;;;;;;;42.50;20.10;;;;;;;2.37;71.57;101026.91;5003983;28;20114;-81
2024/01/12 00:57:31;;;;;;;41.05;18.65;;;;;;;2.35;71.46;101031.16;5012963;28;20033;-77
2024/01/12 00:59:57;;;;;;;40.87;18.83;;;;;;;2.32;71.63;101033.63;5012409;28;20046;-79
2024/01/12 01:02:22;;;;;;;42.03;17.75;;;;;;;2.29;71.70;101033.50;5007236;28;20049;-77
2024/01/12 01:04:47;;;;;;;38.90;16.97;;;;;;;2.27;71.91;101030.84;4993064;28;20459;-79
2024/01/12 01:07:13;;;;;;;38.03;17.90;;;;;;;2.23;71.97;101023.72;4993315;28;20085;-78
2024/01/12 01:09:38;;;;;;;37.70;17.43;;;;;;;2.21;71.86;101027.09;4993526;28;20026;-79
2024/01/12 01:12:05;;;;;;;45.97;18.60;;;;;;;2.17;71.51;101020.88;5000298;28;20068;-78
2024/01/12 01:14:30;;;;;;;42.55;19.20;;;;;;;2.05;71.56;101017.75;4994966;28;20065;-78
2024/01/12 01:16:56;;;;;;;44.37;20.37;;;;;;;1.94;72.02;101023.38;5012634;28;20064;-78
2024/01/12 01:19:22;;;;;;;49.13;21.50;;;;;;;1.88;71.86;101017.94;5012457;28;20432;-79
2024/01/12 01:21:48;;;;;;;46.13;20.10;;;;;;;1.87;72.46;101021.34;5012372;28;20050;-78
2024/01/12 01:24:13;;;;;;;46.27;21.13;;;;;;;1.83;72.12;101009.06;5010962;28;20072;-81
2024/01/12 01:26:39;;;;;;;46.00;20.53;;;;;;;1.79;72.70;101017.50;4998159;28;20109;-80
2024/01/12 01:29:04;;;;;;;47.58;21.35;;;;;;;1.81;72.58;101014.16;4992643;28;20101;-79
2024/01/12 01:31:29;;;;;;;45.40;19.20;;;;;;;1.84;72.95;101011.69;4993429;28;20092;-81
2024/01/12 01:33:55;;;;;;;45.43;20.13;;;;;;;1.86;72.43;101014.38;4992748;28;20104;-78
2024/01/12 01:36:20;;;;;;;45.60;20.30;;;;;;;1.87;72.68;101016.16;4992717;28;20030;-79
2024/01/12 01:38:46;;;;;;;45.63;20.08;;;;;;;1.88;72.25;101011.84;4992533;28;20432;-80
2024/01/12 01:41:11;;;;;;;47.10;19.37;;;;;;;1.87;72.38;101018.75;4992462;28;20027;-77
2024/01/12 01:43:36;;;;;;;42.87;18.83;;;;;;;1.84;72.29;101026.41;4992784;28;20101;-78
2024/01/12 01:46:02;;;;;;;41.50;18.03;;;;;;;1.81;72.63;101028.84;4990918;28;20514;-81
2024/01/12 01:48:28;;;;;;;42.83;18.25;;;;;;;1.79;71.98;101034.00;4992747;28;20037;-81
2024/01/12 01:50:54;;;;;;;47.38;20.38;;;;;;;1.76;72.59;101032.97;4992647;28;20081;-81
2024/01/12 01:53:20;;;;;;;48.17;19.80;;;;;;;1.67;71.98;101029.16;4992261;28;20038;-81
2024/01/12 01:55:46;;;;;;;42.30;18.95;;;;;;;1.62;72.40;101027.16;4991408;28;20022;-80
2024/01/12 01:58:12;;;;;;;40.10;18.43;;;;;;;1.61;72.91;101039.25;4992178;28;20038;-81
2024/01/12 02:00:38;;;;;;;45.50;19.80;;;;;;;1.64;72.80;101034.22;4995428;28;20038;-78
2024/01/12 02:03:04;;;;;;;49.22;19.80;;;;;;;1.64;72.38;101039.41;5012071;28;20445;-78
2024/01/12 02:05:30;;;;;;;45.50;20.02;;;;;;;1.64;72.63;101039.41;5012038;28;20030;-78
2024/01/12 02:07:57;;;;;;;44.33;20.55;;;;;;;1.61;72.59;101047.06;5011836;28;20393;-78
2024/01/12 02:10:22;;;;;;;44.43;20.20;;;;;;;1.57;72.94;101051.22;5011647;28;20065;-81
2024/01/12 02:12:48;;;;;;;49.60;21.63;;;;;;;1.59;72.97;101043.50;5011540;28;20478;-80
2024/01/12 02:15:14;;;;;;;52.30;22.53;;;;;;;1.60;72.42;101041.78;5011286;28;20038;-77
2024/01/12 02:17:40;;;;;;;55.10;24.13;;;;;;;1.60;72.63;101037.50;5011406;28;20025;-80
2024/01/12 02:20:06;;;;;;;49.55;21.85;;;;;;;1.58;72.60;101034.81;5011278;28;20072;-79
2024/01/12 02:22:31;;;;;;;48.63;21.70;;;;;;;1.55;72.11;101039.88;5011375;28;20026;-79
2024/01/12 02:24:57;;;;;;;52.10;22.13;;;;;;;1.56;72.99;101031.25;5009128;28;20033;-77
2024/01/12 02:27:22;;;;;;;49.33;22.27;;;;;;;1.58;72.42;101028.75;4991838;28;20092;-77
2024/01/12 02:29:51;;;;;;;49.23;21.60;;;;;;;1.58;72.39;101039.13;4991467;28;20501;-77
2024/01/12 02:32:16;;;;;;;54.92;23.60;;;;;;;1.58;72.10;101031.34;5008340;28;20144;-77
2024/01/12 02:34:42;;;;;;;56.43;24.17;;;;;;;1.56;72.15;101035.53;5011433;28;20038;-78
2024/01/12 02:37:07;;;;;;;52.00;23.13;;;;;;;1.52;72.56;101034.53;5011054;28;20269;-76
2024/01/12 02:39:32;;;;;;;53.87;23.07;;;;;;;1.48;71.93;101035.22;5011098;28;20025;-77
2024/01/12 02:41:58;;;;;;;48.90;21.87;;;;;;;1.45;72.74;101029.91;5010919;28;20121;-77
2024/01/12 02:44:24;;;;;;;49.97;22.20;;;;;;;1.41;72.15;101028.84;5010675;28;20664;-77
2024/01/12 02:46:49;;;;;;;53.65;22.45;;;;;;;1.40;72.98;101029.69;5011105;28;20026;-77
2024/01/12 02:49:15;;;;;;;54.17;23.50;;;;;;;1.41;73.01;101027.97;5011013;28;20394;-77
2024/01/12 02:51:40;;;;;;;51.13;24.42;;;;;;;1.39;72.87;101022.72;4991631;28;20556;-78
2024/01/12 02:54:06;;;;;;;51.00;23.10;;;;;;;1.33;73.19;101027.63;4991004;28;20065;-79
2024/01/12 02:56:31;;;;;;;50.37;22.17;;;;;;;1.29;73.17;101020.50;4990908;28;20029;-79
2024/01/12 02:58:56;;;;;;;49.97;22.93;;;;;;;1.27;72.78;101023.03;4990719;28;20109;-81
2024/01/12 03:01:22;;;;;;;45.57;21.60;;;;;;;1.27;72.85;101027.31;4991461;28;20668;-77
2024/01/12 03:03:47;;;;;;;48.60;21.50;;;;;;;1.27;72.77;101025.63;4990979;28;20286;-78
2024/01/12 03:06:13;;;;;;;45.83;20.47;;;;;;;1.27;73.14;101022.13;4990947;28;20029;-80
2024/01/12 03:08:38;;;;;;;47.87;20.93;;;;;;;1.22;72.86;101029.72;4991554;28;20018;-78
2024/01/12 03:11:03;;;;;;;48.77;22.17;;;;;;;1.19;73.37;101024.38;5010582;28;20053;-78
2024/01/12 03:13:32;;;;;;;46.38;20.00;;;;;;;1.17;72.57;101032.91;5010471;28;20108;-77
2024/01/12 03:15:57;;;;;;;47.67;20.30;;;;;;;1.16;72.71;101026.81;5010264;28;20037;-77
2024/01/12 03:18:23;;;;;;;39.58;19.75;;;;;;;1.13;73.22;101022.41;5010248;28;20025;-77
2024/01/12 03:20:48;;;;;;;44.53;20.20;;;;;;;1.13;73.21;101024.09;5010162;28;20080;-77
2024/01/12 03:23:13;;;;;;;48.37;21.50;;;;;;;1.10;73.09;101017.06;5005775;28;20433;-78
2024/01/12 03:25:39;;;;;;;46.57;21.13;;;;;;;1.07;72.97;101016.91;4999864;28;20085;-78
2024/01/12 03:28:04;;;;;;;43.30;18.60;;;;;;;1.08;73.47;101017.81;4990572;28;20022;-77
2024/01/12 03:30:30;;;;;;;46.83;20.40;;;;;;;1.08;73.64;101023.00;4990188;28;20042;-79
2024/01/12 03:32:55;;;;;;;48.83;19.87;;;;;;;1.07;73.38;101019.50;4990627;28;20109;-77
2024/01/12 03:35:20;;;;;;;43.17;19.60;;;;;;;1.05;72.78;101015.94;4990501;28;20115;-77
2024/01/12 03:37:46;;;;;;;47.27;20.33;;;;;;;1.02;72.47;101026.19;4972863;28;20034;-80
2024/01/12 03:40:11;;;;;;;43.07;19.93;;;;;;;0.98;72.94;101019.06;4990404;28;20971;-78
2024/01/12 03:42:37;;;;;;;45.13;19.60;;;;;;;0.95;72.84;101003.38;4990424;28;20038;-80
2024/01/12 03:45:03;;;;;;;40.43;19.03;;;;;;;0.96;72.63;101015.53;4990097;28;20030;-79
2024/01/12 03:47:28;;;;;;;40.05;19.35;;;;;;;0.97;73.11;101006.94;4990523;28;20057;-78
2024/01/12 03:49:53;;;;;;;42.63;18.80;;;;;;;0.96;72.70;101007.75;4990522;28;20034;-80
2024/01/12 03:52:19;;;;;;;44.70;19.50;;;;;;;0.93;73.18;101011.06;4972362;28;20022;-78
2024/01/12 03:54:44;;;;;;;42.20;18.70;;;;;;;0.92;72.95;101003.25;4998217;28;20181;-78
2024/01/12 03:57:10;;;;;;;40.13;18.50;;;;;;;0.92;72.99;101003.25;5009953;28;20284;-77
2024/01/12 03:59:35;;;;;;;38.07;17.87;;;;;;;0.91;73.28;101007.53;5009274;28;20437;-78
2024/01/12 04:02:00;;;;;;;44.23;18.77;;;;;;;0.89;72.74;101005.69;5009088;28;20044;-78
2024/01/12 04:04:26;;;;;;;42.03;18.23;;;;;;;0.85;72.46;101002.97;5009447;28;20064;-78
2024/01/12 04:06:51;;;;;;;40.33;18.87;;;;;;;0.85;72.54;101008.16;5009903;28;20026;-81
2024/01/12 04:09:16;;;;;;;41.45;17.73;;;;;;;0.85;72.65;101002.97;5009872;28;20105;-80
2024/01/12 04:11:42;;;;;;;38.67;17.77;;;;;;;0.84;72.92;101003.78;5009875;28;20105;-78
2024/01/12 04:14:08;;;;;;;41.17;18.93;;;;;;;0.83;73.27;101007.16;5009527;28;20034;-78
2024/01/12 04:16:33;;;;;;;42.70;18.67;;;;;;;0.81;73.01;101006.19;5009735;28;20127;-80
2024/01/12 04:18:58;;;;;;;47.30;19.20;;;;;;;0.80;73.28;101011.31;5010911;28;20088;-79
2024/01/12 04:21:24;;;;;;;43.20;18.57;;;;;;;0.78;72.78;101008.66;4993912;28;20038;-78
2024/01/12 04:23:49;;;;;;;38.37;18.40;;;;;;;0.76;73.08;101007.69;4994449;28;20036;-81
2024/01/12 04:26:15;;;;;;;42.47;19.30;;;;;;;0.76;72.46;101007.69;5002650;28;20548;-77
2024/01/12 04:28:40;;;;;;;40.75;18.10;;;;;;;0.74;72.63;101006.72;4994004;28;20113;-80
2024/01/12 04:31:06;;;;;;;40.80;17.97;;;;;;;0.72;73.08;101005.75;4993838;28;20026;-81
2024/01/12 04:33:32;;;;;;;41.67;18.60;;;;;;;0.69;73.11;101000.44;4994075;28;20034;-79
2024/01/12 04:35:58;;;;;;;37.67;17.65;;;;;;;0.66;72.58;101005.47;4994011;28;20030;-80
2024/01/12 04:38:25;;;;;;;42.85;18.65;;;;;;;0.65;72.71;101009.75;4993960;28;20390;-81
2024/01/12 04:40:52;;;;;;;42.22;19.83;;;;;;;0.62;72.86;101014.78;4993645;28;20053;-78
2024/01/12 04:43:17;;;;;;;41.90;19.97;;;;;;;0.53;73.29;101010.06;4993763;28;20521;-82
2024/01/12 04:45:42;;;;;;;39.70;18.90;;;;;;;0.43;73.00;101013.03;4993325;28;20030;-82
2024/01/12 04:48:08;;;;;;;37.60;17.87;;;;;;;0.38;72.90;101017.09;4993266;28;20026;-81
2024/01/12 04:50:33;;;;;;;44.10;18.60;;;;;;;0.40;73.61;101018.06;4993536;28;20026;-77
2024/01/12 04:52:59;;;;;;;39.67;18.17;;;;;;;0.41;73.21;101022.41;4993447;28;20030;-80
2024/01/12 04:55:25;;;;;;;42.30;19.37;;;;;;;0.43;73.60;101024.25;4993377;28;20041;-82
2024/01/12 04:57:50;;;;;;;43.92;19.17;;;;;;;0.45;73.69;101029.53;4993552;28;20022;-81
2024/01/12 05:00:16;;;;;;;42.40;17.87;;;;;;;0.45;73.53;101024.34;4993103;28;20530;-78
2024/01/12 05:02:41;;;;;;;42.55;19.15;;;;;;;0.47;73.32;101019.22;4993351;28;20034;-80
2024/01/12 05:05:08;;;;;;;43.57;19.07;;;;;;;0.48;73.45;101024.50;4993212;28;20034;-80
2024/01/12 05:07:34;;;;;;;42.15;18.88;;;;;;;0.51;73.51;101026.34;4993238;28;20026;-81
2024/01/12 05:09:59;;;;;;;38.80;17.48;;;;;;;0.52;72.97;101030.72;4993489;28;20027;-78
2024/01/12 05:12:25;;;;;;;39.00;16.87;;;;;;;0.53;73.13;101029.91;5003314;28;20030;-81
2024/01/12 05:14:50;;;;;;;41.57;18.20;;;;;;;0.56;73.33;101027.47;5012499;28;20030;-82
2024/01/12 05:17:16;;;;;;;37.47;17.42;;;;;;;0.57;73.24;101027.53;4995655;28;20101;-78
2024/01/12 05:19:41;;;;;;;44.80;19.40;;;;;;;0.60;72.94;101025.88;4993069;28;20088;-82
2024/01/12 05:22:07;;;;;;;39.03;17.53;;;;;;;0.60;73.04;101021.63;4993145;28;20037;-82
2024/01/12 05:24:33;;;;;;;42.70;18.88;;;;;;;0.63;73.52;101020.88;4999371;28;20087;-81
2024/01/12 05:26:59;;;;;;;40.33;17.97;;;;;;;0.66;73.04;101028.81;4995923;28;20501;-80
2024/01/12 05:29:24;;;;;;;46.97;19.70;;;;;;;0.67;72.78;101023.69;4992779;28;20270;-76
2024/01/12 05:31:50;;;;;;;40.60;19.47;;;;;;;0.67;73.34;101021.09;4992932;28;20049;-77
2024/01/12 05:34:15;;;;;;;39.58;18.35;;;;;;;0.70;73.07;101028.13;4975098;28;20434;-81
2024/01/12 05:36:40;;;;;;;50.57;21.93;;;;;;;0.72;73.38;101026.50;4993031;28;20034;-81
2024/01/12 05:39:06;;;;;;;57.20;24.60;;;;;;;0.73;73.42;101027.41;4992758;28;20430;-80
2024/01/12 05:41:32;;;;;;;58.10;25.40;;;;;;;0.73;73.38;101033.47;4992602;28;20022;-78
2024/01/12 05:43:57;;;;;;;56.00;23.85;;;;;;;0.71;73.60;101029.91;4991958;28;20033;-81
2024/01/12 05:46:23;;;;;;;59.03;25.77;;;;;;;0.68;73.47;101035.81;4992718;28;20526;-82
2024/01/12 05:48:48;;;;;;;56.70;24.95;;;;;;;0.68;73.33;101040.13;4992662;28;20031;-81
2024/01/12 05:51:15;;;;;;;44.93;22.33;;;;;;;0.68;73.97;101046.19;4992365;28;20483;-78
2024/01/12 05:53:40;;;;;;;46.70;20.35;;;;;;;0.68;73.75;101045.31;4992561;28;20474;-80
2024/01/12 05:56:05;;;;;;;44.53;18.30;;;;;;;0.68;73.92;101046.19;4992234;28;20037;-77
2024/01/12 05:58:31;;;;;;;42.30;18.17;;;;;;;0.71;73.88;101053.25;4991782;28;20586;-76
2024/01/12 06:00:56;;;;;;;39.40;18.10;;;;;;;0.76;74.69;101053.47;4991893;28;20033;-81
2024/01/12 06:03:22;;;;;;;38.10;17.90;;;;;;;0.80;73.71;101060.59;4992328;28;20342;-77
2024/01/12 06:05:50;;;;;;;38.87;17.80;;;;;;;0.82;74.09;101054.63;4992159;28;20026;-77
2024/01/12 06:08:16;;;;;;;43.40;17.42;;;;;;;0.84;74.58;101057.31;4992290;28;20088;-81
2024/01/12 06:10:42;;;;;;;43.70;16.83;;;;;;;0.84;74.35;101060.81;4992514;28;20541;-77
2024/01/12 06:13:07;;;;;;;38.87;17.73;;;;;;;0.86;73.87;101060.88;4992094;28;20297;-77
2024/01/12 06:15:33;;;;;;;38.40;16.77;;;;;;;0.87;74.08;101061.78;4991151;28;20030;-75
2024/01/12 06:17:59;;;;;;;42.67;17.20;;;;;;;0.90;74.44;101069.69;4992106;28;20042;-78
2024/01/12 06:20:25;;;;;;;36.65;15.57;;;;;;;0.89;74.32;101068.78;4991574;28;20489;-80
2024/01/12 06:22:50;;;;;;;36.47;15.70;;;;;;;0.91;74.42;101067.16;4988163;28;20062;-80
2024/01/12 06:25:16;;;;;;;36.55;17.17;;;;;;;0.92;73.97;101063.75;4993979;28;20026;-80
2024/01/12 06:27:42;;;;;;;37.33;16.27;;;;;;;0.91;73.77;101066.28;4989323;28;20034;-79
2024/01/12 06:30:08;;;;;;;35.03;15.73;;;;;;;0.90;74.29;101062.78;4966678;28;20039;-81
2024/01/12 06:32:33;;;;;;;37.17;16.38;;;;;;;0.91;73.99;101059.38;4985750;28;20035;-78
2024/01/12 06:34:59;;;;;;;40.77;16.63;;;;;;;0.91;74.48;101056.78;4989054;28;20108;-77
2024/01/12 06:37:24;;;;;;;40.03;16.85;;;;;;;0.91;74.52;101053.31;4990862;28;20463;-79
2024/01/12 06:39:49;;;;;;;40.93;17.20;;;;;;;0.86;74.42;101053.09;4990659;28;20034;-80
2024/01/12 06:42:15;;;;;;;39.27;17.10;;;;;;;0.85;74.79;101059.09;4990637;28;20097;-80
2024/01/12 06:44:41;;;;;;;40.90;16.58;;;;;;;0.83;74.56;101060.72;5001269;28;20457;-80
2024/01/12 06:47:07;;;;;;;45.83;18.10;;;;;;;0.82;74.36;101054.63;5007132;28;20030;-78
2024/01/12 06:49:33;;;;;;;41.90;18.10;;;;;;;0.80;74.68;101055.41;5007716;28;20034;-80
2024/01/12 06:51:58;;;;;;;48.43;18.53;;;;;;;0.78;75.35;101065.69;4991542;28;20030;-80
2024/01/12 06:54:24;;;;;;;44.63;18.75;;;;;;;0.77;74.68;101060.44;4996470;28;20042;-81
2024/01/12 06:56:52;;;;;;;41.40;18.30;;;;;;;0.76;75.03;101069.91;5000699;28;20038;-80
2024/01/12 06:59:18;;;;;;;41.10;18.42;;;;;;;0.78;75.57;101068.28;4998757;28;20129;-79
2024/01/12 07:01:43;;;;;;;42.77;17.73;;;;;;;0.79;74.88;101071.78;4997504;28;20112;-79
2024/01/12 07:04:09;;;;;;;38.60;16.90;;;;;;;0.77;75.12;101071.69;4990938;28;20109;-77
2024/01/12 07:06:34;;;;;;;41.40;17.50;;;;;;;0.77;74.71;101065.63;5004327;28;20037;-79
2024/01/12 07:09:00;;;;;;;45.20;18.53;;;;;;;0.78;74.94;101064.81;5005448;28;20141;-81
2024/01/12 07:11:25;;;;;;;42.60;18.50;;;;;;;0.76;75.15;101058.66;5007786;28;20087;-75
2024/01/12 07:13:51;;;;;;;45.42;18.15;;;;;;;0.74;75.54;101063.75;4993218;28;20030;-77
2024/01/12 07:16:17;;;;;;;39.97;18.23;;;;;;;0.73;75.16;101061.97;4998796;28;20576;-76
2024/01/12 07:18:42;;;;;;;54.17;22.17;;;;;;;0.72;76.08;101057.63;5001984;28;20505;-77
2024/01/12 07:21:08;;;;;;;47.08;18.58;;;;;;;0.71;76.21;101061.03;4978101;28;20045;-76
2024/01/12 07:23:33;;;;;;;53.88;18.40;;;;;;;0.70;76.06;101065.31;4998612;28;20033;-76
2024/01/12 07:26:00;;;;;;;53.70;19.13;;;;;;;0.74;75.70;101065.47;4992023;28;20022;-77
2024/01/12 07:28:26;;;;;;;59.38;18.50;;;;;;;0.78;75.84;101073.47;4994111;28;20022;-80
2024/01/12 07:30:54;;;;;;;56.93;20.17;;;;;;;0.82;75.52;101071.91;4972856;28;20026;-78
2024/01/12 07:33:23;;;;;;;77.57;19.40;;;;;;;0.84;75.88;101070.28;4988848;28;20072;-76
2024/01/12 07:35:48;;;;;;;79.13;20.42;;;;;;;0.86;75.80;101073.84;4992527;28;20034;-76
2024/01/12 07:38:13;;;;;;;65.70;19.30;;;;;;;0.88;75.50;101080.00;5001883;28;20032;-78
2024/01/12 07:40:39;;;;;;;58.43;18.40;;;;;;;0.90;76.07;101077.47;4993591;28;20031;-80
2024/01/12 07:43:04;;;;;;;65.73;19.67;;;;;;;0.90;76.04;101075.75;4992812;28;20042;-77
2024/01/12 07:45:30;;;;;;;51.93;19.00;;;;;;;0.89;75.95;101091.25;4996362;28;20057;-78
2024/01/12 07:47:55;;;;;;;72.97;20.23;;;;;;;0.83;76.25;101086.66;4997615;28;20390;-77
2024/01/12 07:50:21;;;;;;;77.30;20.77;;;;;;;0.80;76.32;101095.16;4989842;28;20653;-77
2024/01/12 07:52:46;;;;;;;61.73;21.13;;;;;;;0.77;76.89;101102.78;4972230;28;20137;-76
2024/01/12 07:55:11;;;;;;;71.90;20.55;;;;;;;0.76;77.05;101106.19;4989886;28;20501;-77
2024/01/12 07:57:37;;;;;;;74.37;21.63;;;;;;;0.74;76.47;101107.84;4990219;28;20030;-76
2024/01/12 08:00:03;;;;;;;60.80;19.97;;;;;;;0.71;77.14;101103.38;4989728;28;20483;-79
2024/01/12 08:02:29;;;;;;;74.88;19.83;;;;;;;0.74;77.61;101107.84;4990403;28;20113;-79
2024/01/12 08:04:54;;;;;;;62.90;19.43;;;;;;;0.72;76.77;101099.09;5000092;28;20034;-77
2024/01/12 08:07:19;;;;;;;56.23;18.50;;;;;;;0.74;76.97;101105.25;5004489;28;20026;-76
2024/01/12 08:09:45;;;;;;;63.47;17.43;;;;;;;0.80;77.06;101097.75;5003881;28;20390;-77
2024/01/12 08:12:10;;;;;;;56.27;18.23;;;;;;;0.83;76.89;101091.84;4998879;28;20026;-80
2024/01/12 08:14:36;;;;;;;67.70;17.90;;;;;;;0.83;77.37;101100.50;5009895;28;20289;-77
2024/01/12 08:17:02;;;;;;;55.33;18.47;;;;;;;0.85;77.37;101105.78;5010146;28;20046;-77
2024/01/12 08:19:27;;;;;;;67.75;19.83;;;;;;;0.88;77.49;101102.44;5009651;28;20141;-78
2024/01/12 08:21:53;;;;;;;58.73;19.23;;;;;;;0.88;77.23;101111.09;5009518;28;20635;-77
2024/01/12 08:24:19;;;;;;;55.40;19.00;;;;;;;0.90;77.18;101108.59;5008140;28;20021;-76
2024/01/12 08:26:47;;;;;;;62.23;18.17;;;;;;;0.92;77.65;101106.97;4995572;28;20037;-77
2024/01/12 08:29:13;;;;;;;65.47;19.13;;;;;;;0.95;77.47;101107.13;5009181;28;20088;-77
2024/01/12 08:31:38;;;;;;;74.17;19.97;;;;;;;1.00;77.65;101105.63;5009591;28;20029;-77
2024/01/12 08:34:04;;;;;;;52.60;18.47;;;;;;;1.07;77.24;101112.88;4990720;28;20038;-80
2024/01/12 08:36:32;;;;;;;64.73;18.23;;;;;;;1.13;76.89;101118.38;4989451;28;20125;-80
2024/01/12 08:38:57;;;;;;;62.97;17.55;;;;;;;1.18;76.91;101121.19;4989908;28;20478;-76
2024/01/12 08:41:23;;;;;;;61.77;19.07;;;;;;;1.24;76.87;101125.78;4989801;28;20046;-79
2024/01/12 08:43:48;;;;;;;60.63;18.27;;;;;;;1.25;77.22;101135.34;4989448;28;20026;-80
2024/01/12 08:46:13;;;;;;;58.73;18.23;;;;;;;1.27;76.50;101141.50;4990120;28;20042;-76
2024/01/12 08:48:40;;;;;;;60.67;18.23;;;;;;;1.28;77.33;101144.19;4989874;28;20511;-77
2024/01/12 08:51:06;;;;;;;51.92;18.17;;;;;;;1.32;76.45;101142.59;4989656;28;20037;-75
2024/01/12 08:53:31;;;;;;;52.40;18.47;;;;;;;1.35;76.37;101144.47;4989716;28;20042;-75
2024/01/12 08:55:57;;;;;;;48.63;19.30;;;;;;;1.38;77.04;101140.31;4989819;28;20052;-79
2024/01/12 08:58:22;;;;;;;63.50;20.30;;;;;;;1.40;76.18;101142.97;4989480;28;20042;-77
2024/01/12 09:00:47;;;;;;;48.07;18.30;;;;;;;1.43;76.49;101153.50;4989141;28;20034;-75
2024/01/12 09:03:13;;;;;;;52.90;17.57;;;;;;;1.46;76.61;101147.56;4989831;28;20269;-75
2024/01/12 09:05:38;;;;;;;68.93;20.23;;;;;;;1.46;75.82;101160.53;4992137;28;20022;-78
2024/01/12 09:08:04;;;;;;;59.10;18.98;;;;;;;1.45;76.94;101161.38;4993255;28;20030;-76
2024/01/12 09:10:29;;;;;;;60.87;20.57;;;;;;;1.44;76.67;101163.06;4993364;28;20034;-76
2024/01/12 09:12:55;;;;;;;67.53;19.17;;;;;;;1.41;76.65;101169.00;5007280;28;20026;-76
2024/01/12 09:15:20;;;;;;;77.53;19.37;;;;;;;1.38;76.59;101160.19;5012248;28;20029;-76
2024/01/12 09:17:45;;;;;;;60.23;20.07;;;;;;;1.37;76.66;101158.41;5012656;28;20048;-75
2024/01/12 09:20:11;;;;;;;59.33;20.85;;;;;;;1.38;76.64;101157.56;5012407;28;20030;-76
2024/01/12 09:22:36;;;;;;;60.47;20.50;;;;;;;1.39;76.69;101161.94;5012368;28;20110;-75
2024/01/12 09:25:02;;;;;;;68.07;21.87;;;;;;;1.42;76.68;101162.09;5005156;28;20372;-76
2024/01/12 09:27:28;;;;;;;64.22;21.67;;;;;;;1.45;76.42;101153.56;4992925;28;20069;-77
2024/01/12 09:29:53;;;;;;;64.30;21.03;;;;;;;1.49;76.55;101158.09;4992152;28;20031;-78
2024/01/12 09:32:19;;;;;;;61.07;21.43;;;;;;;1.53;76.75;101162.59;4992681;28;20026;-76
2024/01/12 09:34:45;;;;;;;70.47;23.30;;;;;;;1.55;76.87;101166.16;4992784;28;20030;-78
2024/01/12 09:37:10;;;;;;;83.88;24.90;;;;;;;1.55;77.11;101167.06;4992598;28;20096;-76
2024/01/12 09:39:36;;;;;;;68.23;23.60;;;;;;;1.58;76.58;101171.53;4992619;28;20022;-78
2024/01/12 09:42:02;;;;;;;89.87;25.63;;;;;;;1.62;77.04;101176.03;4992715;28;20383;-76
2024/01/12 09:44:29;;;;;;;98.85;26.73;;;;;;;1.66;76.35;101177.97;4992232;28;20617;-80
2024/01/12 09:46:59;;;;;;;84.00;25.50;;;;;;;1.66;76.95;101180.56;4992525;28;20030;-75
2024/01/12 09:49:29;;;;;;;81.82;25.00;;;;;;;1.69;77.19;101178.09;4992458;28;20034;-75
2024/01/12 09:51:59;;;;;;;93.50;27.60;;;;;;;1.68;76.76;101181.50;4992445;28;20077;-78
2024/01/12 09:54:24;;;;;;;92.03;26.77;;;;;;;1.69;77.30;101182.41;4974516;28;20030;-77
2024/01/12 09:56:51;;;;;;;97.63;25.33;;;;;;;1.71;76.69;101192.03;5007088;28;20034;-77
2024/01/12 09:59:21;;;;;;;75.70;23.67;;;;;;;1.74;77.33;101193.00;4991664;28;20047;-79
2024/01/12 10:01:47;;;;;;;88.22;25.63;;;;;;;1.78;77.00;101194.91;4992240;28;20391;-76
2024/01/12 10:04:12;;;;;;;90.60;24.88;;;;;;;1.83;76.63;101196.03;4992227;28;20025;-77
2024/01/12 10:06:37;;;;;;;80.33;23.50;;;;;;;1.82;76.73;101189.94;4992357;28;20029;-78
2024/01/12 10:09:03;;;;;;;64.63;21.30;;;;;;;1.81;76.65;101193.38;4992157;28;20021;-77
2024/01/12 10:11:29;;;;;;;91.00;25.25;;;;;;;1.83;77.28;101185.66;4994610;28;20457;-80
2024/01/12 10:13:54;;;;;;;85.67;24.53;;;;;;;1.84;77.08;101197.81;5005246;28;20486;-80
2024/01/12 10:16:22;;;;;;;80.57;23.70;;;;;;;1.81;77.26;101203.75;4999501;28;20498;-77
2024/01/12 10:18:48;;;;;;;75.50;25.23;;;;;;;1.77;77.45;101206.13;5011282;28;20040;-79
2024/01/12 10:21:14;;;;;;;62.08;21.55;;;;;;;1.71;77.25;101199.84;5011319;28;20037;-78
2024/01/12 10:23:42;;;;;;;61.78;20.52;;;;;;;1.75;77.91;101197.38;5010248;28;20038;-77
2024/01/12 10:26:09;;;;;;;61.58;20.25;;;;;;;1.85;77.87;101199.59;4995928;28;20105;-77
2024/01/12 10:28:34;;;;;;;61.23;19.47;;;;;;;1.96;77.52;101195.78;4991758;28;20070;-78
2024/01/12 10:31:06;;;;;;;60.35;19.98;;;;;;;2.04;77.35;101195.22;4991410;28;20438;-78
2024/01/12 10:33:32;;;;;;;58.80;18.27;;;;;;;2.10;76.92;101195.53;4991887;28;20061;-77
2024/01/12 10:36:14;;;;;;;61.25;19.00;;;;;;;2.19;77.47;101200.28;4991939;28;20023;-79
2024/01/12 10:38:41;;;;;;;59.83;19.35;;;;;;;2.27;76.51;101202.38;4991461;28;20034;-76
2024/01/12 10:41:07;;;;;;;61.97;19.95;;;;;;;2.35;76.44;101202.72;4991586;28;20053;-80
2024/01/12 10:43:37;;;;;;;73.60;23.73;;;;;;;2.38;76.20;101200.25;4991511;28;20087;-79
2024/01/12 10:46:10;;;;;;;61.97;21.03;;;;;;;2.35;76.57;101196.63;4991149;28;20030;-76
2024/01/12 10:48:59;;;;;;;65.63;21.83;;;;;;;2.31;76.58;101197.31;4991636;28;20022;-79
2024/01/12 10:51:30;;;;;;;71.53;21.95;;;;;;;2.27;76.39;101194.56;4990898;28;20561;-78
2024/01/12 10:54:01;;;;;;;64.60;21.40;;;;;;;2.24;76.55;101193.56;4992466;28;20069;-79
2024/01/12 10:56:28;;;;;;;73.50;23.70;;;;;;;2.20;77.00;101191.66;5010698;28;20025;-78
2024/01/12 10:58:54;;;;;;;72.07;24.90;;;;;;;2.12;77.09;101186.09;5010475;28;20068;-78
2024/01/12 11:01:20;;;;;;;68.15;23.17;;;;;;;2.06;77.88;101188.44;5010342;28;20025;-78
2024/01/12 11:03:47;;;;;;;61.85;21.30;;;;;;;2.07;77.62;101182.41;5010774;28;20034;-80
2024/01/12 11:06:14;;;;;;;73.43;25.38;;;;;;;2.08;77.98;101179.88;5010701;28;20112;-78
2024/01/12 11:08:41;;;;;;;65.07;23.30;;;;;;;2.08;77.50;101172.06;5010720;28;20033;-80
2024/01/12 11:11:08;;;;;;;72.25;25.73;;;;;;;2.06;78.61;101162.44;5010620;28;20096;-79